Applegate, Michigan
Current Conditions -  °F | °C
As of 2:00 PM on Tuesday 21 Oct 2014 (Local Time) from CYZR Reporting Station
Overcast Overcast  
Wind Chill: 38°   Ceiling: 1700
Heat Index: 46°   Visibility: 9mi
Dew Point: 41°   Wind: 24mph
Humidity: 81%   Direction: 360°N
Pressure: 30"   Gusts: 31mph
Location:  43.36°N, 82.64°W
Report Text: CYZR 211800Z AUTO 36021G27KT 9SM BKN017 OVC023 08/05 A3000 RMK SLP163
Loading
Personal Weather Stations






























Interactive Weather Map
Tropical Storm Tracking
New forecast layout! Learn more

10-Day Weather Forecast

Advertisements
Track Severe Weather on mobile